createdAt,value
2023-05-12T00:00:29.186Z,28.10
2023-05-12T00:03:05.559Z,28.20
2023-05-12T00:05:35.725Z,28.20
2023-05-12T00:08:05.748Z,28.30
2023-05-12T00:10:38.050Z,28.20
2023-05-12T00:13:08.729Z,28.20
2023-05-12T00:15:40.096Z,28.30
2023-05-12T00:18:10.231Z,28.40
2023-05-12T00:20:41.096Z,28.30
2023-05-12T00:23:11.568Z,28.30
2023-05-12T00:25:41.687Z,28.30
2023-05-12T00:28:11.986Z,28.40
2023-05-12T00:30:42.461Z,28.40
2023-05-12T00:33:13.253Z,28.50
2023-05-12T00:38:29.835Z,28.50
2023-05-12T00:41:01.504Z,28.50
2023-05-12T00:43:33.280Z,28.70
2023-05-12T00:46:07.700Z,28.80
2023-05-12T00:48:38.879Z,28.80
2023-05-12T00:51:09.806Z,28.80
2023-05-12T00:53:49.028Z,29.00
2023-05-12T00:56:23.539Z,29.10
2023-05-12T00:58:54.023Z,29.00
2023-05-12T01:01:24.656Z,29.10
2023-05-12T01:03:57.368Z,29.20
2023-05-12T01:06:51.702Z,29.20
2023-05-12T01:09:21.657Z,29.20
2023-05-12T01:11:52.023Z,29.40
2023-05-12T01:14:23.560Z,29.30
2023-05-12T01:17:01.262Z,29.40
2023-05-12T01:19:48.294Z,29.40
2023-05-12T01:22:21.419Z,29.60
2023-05-12T01:25:03.103Z,29.60
2023-05-12T01:27:36.138Z,29.60
2023-05-12T01:30:08.478Z,29.80
2023-05-12T01:32:40.251Z,29.60
2023-05-12T01:35:11.736Z,29.80
2023-05-12T01:37:48.326Z,29.70
2023-05-12T01:40:20.119Z,29.60
2023-05-12T01:42:51.296Z,29.60
2023-05-12T01:45:22.089Z,29.40
2023-05-12T01:47:54.456Z,29.50
2023-05-12T01:50:24.920Z,29.90
2023-05-12T01:52:55.133Z,30.20
2023-05-12T01:55:25.716Z,30.10
2023-05-12T01:58:00.533Z,30.10
2023-05-12T02:00:31.068Z,30.40
2023-05-12T02:03:03.115Z,30.40
2023-05-12T02:05:33.788Z,30.50
2023-05-12T02:08:06.041Z,30.40
2023-05-12T02:10:36.659Z,30.50
2023-05-12T02:13:07.267Z,30.70
2023-05-12T02:15:38.732Z,30.70
2023-05-12T02:18:09.742Z,30.60
2023-05-12T02:20:42.030Z,30.80
2023-05-12T02:23:12.301Z,30.80
2023-05-12T02:25:43.943Z,30.80
2023-05-12T02:28:14.070Z,30.70
2023-05-12T02:30:52.149Z,30.90
2023-05-12T02:33:25.607Z,31.20
2023-05-12T02:35:55.930Z,31.00
2023-05-12T02:38:29.682Z,30.90
2023-05-12T02:41:00.024Z,30.80
2023-05-12T02:43:30.352Z,31.00
2023-05-12T02:46:00.763Z,31.20
2023-05-12T02:48:30.552Z,31.40
2023-05-12T02:51:01.141Z,31.30
2023-05-12T02:53:31.145Z,31.20
2023-05-12T02:56:01.500Z,31.20
2023-05-12T02:58:32.038Z,31.00
2023-05-12T03:01:10.202Z,31.00
2023-05-12T03:03:42.353Z,31.30
2023-05-12T03:06:13.133Z,31.40
2023-05-12T03:08:43.670Z,31.50
2023-05-12T03:11:13.432Z,31.60
2023-05-12T03:13:43.357Z,31.70
2023-05-12T03:16:14.065Z,31.80
2023-05-12T03:18:44.351Z,31.50
2023-05-12T03:21:14.591Z,31.50
2023-05-12T03:23:45.326Z,31.60
2023-05-12T03:26:15.480Z,31.60
2023-05-12T03:28:45.157Z,31.50
2023-05-12T03:31:15.053Z,31.80
2023-05-12T03:33:44.771Z,31.80
2023-05-12T03:36:15.020Z,32.00
2023-05-12T03:38:44.709Z,32.20
2023-05-12T03:41:16.038Z,32.30
2023-05-12T03:43:46.178Z,32.30
2023-05-12T03:46:16.360Z,32.30
2023-05-12T03:48:46.298Z,32.20
2023-05-12T03:51:16.037Z,32.20
2023-05-12T03:53:46.835Z,32.50
2023-05-12T03:56:17.231Z,32.50
2023-05-12T03:58:50.615Z,32.90
2023-05-12T04:01:20.530Z,33.20
2023-05-12T04:03:50.584Z,33.10
2023-05-12T04:06:20.731Z,33.20
2023-05-12T04:08:50.415Z,33.50
2023-05-12T04:11:20.336Z,33.40
2023-05-12T04:13:50.006Z,33.10
2023-05-12T04:16:20.093Z,32.80
2023-05-12T04:18:50.867Z,32.70
2023-05-12T04:21:21.233Z,32.50
2023-05-12T04:23:57.029Z,32.30
2023-05-12T04:26:29.970Z,32.30
2023-05-12T04:28:59.902Z,31.90
2023-05-12T04:31:29.800Z,31.90
2023-05-12T04:34:00.991Z,31.60
2023-05-12T04:36:32.071Z,31.30
2023-05-12T04:39:03.210Z,31.20
2023-05-12T04:41:33.561Z,30.90
2023-05-12T04:44:03.334Z,30.90
2023-05-12T04:46:33.835Z,30.90
2023-05-12T04:49:03.650Z,30.80
2023-05-12T04:51:34.082Z,31.00
2023-05-12T04:54:04.640Z,31.00
2023-05-12T04:56:34.408Z,31.40
2023-05-12T04:59:04.362Z,31.60
2023-05-12T05:01:34.706Z,31.70
2023-05-12T05:04:05.353Z,32.10
2023-05-12T05:06:35.181Z,32.00
2023-05-12T05:09:05.221Z,32.30
2023-05-12T05:11:35.436Z,32.60
2023-05-12T05:14:05.588Z,31.90
2023-05-12T05:16:37.205Z,31.70
2023-05-12T05:19:15.591Z,31.50
2023-05-12T05:21:55.064Z,31.20
2023-05-12T05:24:25.169Z,30.90
2023-05-12T05:26:54.930Z,30.70
2023-05-12T05:29:25.046Z,30.60
2023-05-12T05:31:55.121Z,30.40
2023-05-12T05:34:25.402Z,30.30
2023-05-12T05:36:56.072Z,30.20
2023-05-12T05:39:26.827Z,30.00
2023-05-12T05:41:56.737Z,29.80
2023-05-12T05:44:27.255Z,29.60
2023-05-12T05:46:58.365Z,29.60
2023-05-12T05:49:31.064Z,29.10
2023-05-12T05:52:03.091Z,29.10
2023-05-12T05:54:33.655Z,29.00
2023-05-12T05:57:04.678Z,29.00
2023-05-12T05:59:34.816Z,29.10
2023-05-12T06:02:05.217Z,29.10
2023-05-12T06:04:35.348Z,28.90
2023-05-12T06:07:05.220Z,28.60
2023-05-12T06:09:35.258Z,28.60
2023-05-12T06:12:05.169Z,28.30
2023-05-12T06:14:35.318Z,28.20
2023-05-12T06:17:05.091Z,28.30
2023-05-12T06:19:35.192Z,27.90
2023-05-12T06:22:05.572Z,27.80
2023-05-12T06:24:35.650Z,28.10
2023-05-12T06:27:05.478Z,28.10
2023-05-12T06:29:35.919Z,28.00
2023-05-12T06:32:05.813Z,28.10
2023-05-12T06:34:35.911Z,28.10
2023-05-12T06:37:05.561Z,28.00
2023-05-12T06:39:35.414Z,27.80
2023-05-12T06:42:05.988Z,27.70
2023-05-12T06:44:43.414Z,27.80
2023-05-12T06:47:13.842Z,27.70
2023-05-12T06:49:43.516Z,27.70
2023-05-12T06:52:19.587Z,27.80
2023-05-12T06:54:49.934Z,27.70
2023-05-12T06:57:19.717Z,27.70
2023-05-12T06:59:49.854Z,27.60
2023-05-12T07:02:19.720Z,27.70
2023-05-12T07:04:49.602Z,27.50
2023-05-12T07:07:19.710Z,27.40
2023-05-12T07:09:50.024Z,27.00
2023-05-12T07:12:20.299Z,27.30
2023-05-12T07:14:50.341Z,27.60
2023-05-12T07:17:20.776Z,27.70
2023-05-12T07:19:50.795Z,27.90
2023-05-12T07:22:23.915Z,27.70
2023-05-12T07:24:54.915Z,27.80
2023-05-12T07:27:25.079Z,27.50
2023-05-12T07:29:55.745Z,27.10
2023-05-12T07:32:26.948Z,27.10
2023-05-12T07:34:57.128Z,27.50
2023-05-12T07:37:26.973Z,27.70
2023-05-12T07:39:56.841Z,27.80
2023-05-12T07:42:28.831Z,27.60
2023-05-12T07:44:58.873Z,27.90
2023-05-12T07:47:30.169Z,28.00
2023-05-12T07:50:00.305Z,27.80
2023-05-12T07:52:30.099Z,27.70
2023-05-12T07:54:59.967Z,27.30
2023-05-12T07:57:29.771Z,27.30
2023-05-12T07:59:59.954Z,27.30
2023-05-12T08:02:29.676Z,27.20
2023-05-12T08:05:00.117Z,27.40
2023-05-12T08:07:30.361Z,27.20
2023-05-12T08:10:00.668Z,27.40
2023-05-12T08:12:32.380Z,27.30
2023-05-12T08:15:02.735Z,27.30
2023-05-12T08:17:33.663Z,27.20
2023-05-12T08:20:05.950Z,27.30
2023-05-12T08:22:36.508Z,27.50
2023-05-12T08:25:06.498Z,27.30
2023-05-12T08:27:36.566Z,27.50
2023-05-12T08:30:07.610Z,27.70
2023-05-12T08:32:38.499Z,27.50
2023-05-12T08:35:11.523Z,27.60
2023-05-12T08:37:41.680Z,27.60
2023-05-12T08:40:19.802Z,27.80
2023-05-12T08:43:24.199Z,27.80
2023-05-12T08:45:59.854Z,27.80
2023-05-12T08:48:31.092Z,28.10
2023-05-12T08:51:02.539Z,27.90
2023-05-12T08:53:35.238Z,27.80
2023-05-12T08:58:42.342Z,28.00
2023-05-12T09:01:13.980Z,28.00
2023-05-12T09:03:44.167Z,28.20
2023-05-12T09:06:15.145Z,28.10
2023-05-12T09:08:46.157Z,28.10
2023-05-12T09:11:16.446Z,28.10
2023-05-12T09:14:17.244Z,28.20
2023-05-12T09:16:51.063Z,28.30
2023-05-12T09:19:22.962Z,28.40
2023-05-12T09:21:53.242Z,28.30
2023-05-12T09:24:23.813Z,28.30
2023-05-12T09:26:58.017Z,28.20
2023-05-12T09:29:31.238Z,28.30
2023-05-12T09:32:05.292Z,28.30
2023-05-12T09:34:42.777Z,28.20
2023-05-12T09:37:14.549Z,28.20
2023-05-12T09:39:47.648Z,27.80
2023-05-12T09:42:17.729Z,27.90
2023-05-12T09:44:48.989Z,27.90
2023-05-12T09:47:20.019Z,28.00
2023-05-12T09:49:54.746Z,28.10
2023-05-12T09:52:25.206Z,28.10
2023-05-12T09:54:55.602Z,28.00
2023-05-12T09:57:27.254Z,27.70
2023-05-12T09:59:57.607Z,27.50
2023-05-12T10:02:28.363Z,27.40
2023-05-12T10:05:05.353Z,27.80
2023-05-12T10:07:35.942Z,27.90
2023-05-12T10:10:10.168Z,27.80
2023-05-12T10:12:42.634Z,27.70
2023-05-12T10:15:14.736Z,27.70
2023-05-12T10:17:46.580Z,28.00
2023-05-12T10:20:18.598Z,28.00
2023-05-12T10:22:51.013Z,28.00
2023-05-12T10:25:21.541Z,28.20
2023-05-12T10:27:54.425Z,28.10
2023-05-12T10:30:27.512Z,27.90
2023-05-12T10:32:59.450Z,27.80
2023-05-12T10:35:37.128Z,27.70
2023-05-12T10:38:21.341Z,27.70
2023-05-12T10:41:02.231Z,27.90
2023-05-12T10:43:44.610Z,27.90
2023-05-12T10:46:22.647Z,27.80
2023-05-12T10:48:58.439Z,27.80
2023-05-12T10:51:32.140Z,27.90
2023-05-12T10:54:08.600Z,28.00
2023-05-12T10:56:46.568Z,28.00
2023-05-12T10:59:20.465Z,27.90
2023-05-12T11:02:34.695Z,28.00
2023-05-12T11:05:13.710Z,27.90
2023-05-12T11:07:52.562Z,27.70
2023-05-12T11:10:24.413Z,27.70
2023-05-12T11:12:56.890Z,27.60
2023-05-12T11:15:27.704Z,27.80
2023-05-12T11:18:00.575Z,27.90
2023-05-12T11:20:34.067Z,27.80
2023-05-12T11:23:05.659Z,27.70
2023-05-12T11:25:36.340Z,27.70
2023-05-12T11:28:06.152Z,27.70
2023-05-12T11:30:36.347Z,27.70
2023-05-12T11:33:07.520Z,27.60
2023-05-12T11:35:37.826Z,27.70
2023-05-12T11:38:18.388Z,27.80
2023-05-12T11:40:49.216Z,27.90
2023-05-12T11:43:24.300Z,27.90
2023-05-12T11:45:57.782Z,27.90
2023-05-12T11:48:39.210Z,27.90
2023-05-12T11:51:10.377Z,28.00
2023-05-12T11:53:42.878Z,27.80
2023-05-12T11:56:21.203Z,27.80
2023-05-12T11:58:59.809Z,27.80
2023-05-12T12:01:29.856Z,27.70
2023-05-12T12:04:00.070Z,27.80
2023-05-12T12:06:30.422Z,27.80
2023-05-12T12:09:04.494Z,27.80
2023-05-12T12:11:37.568Z,27.80
2023-05-12T12:14:07.501Z,27.80
2023-05-12T12:16:37.328Z,27.70
2023-05-12T12:19:09.662Z,27.50
2023-05-12T12:21:39.738Z,27.50
2023-05-12T12:24:12.864Z,27.60
2023-05-12T12:26:42.746Z,27.40
2023-05-12T12:29:12.479Z,27.50
2023-05-12T12:31:45.545Z,27.50
2023-05-12T12:34:15.533Z,27.40
2023-05-12T12:36:45.283Z,27.40
2023-05-12T12:39:19.997Z,27.60
2023-05-12T12:41:50.366Z,27.60
2023-05-12T12:44:20.224Z,27.60
2023-05-12T12:46:50.165Z,27.50
2023-05-12T12:49:20.023Z,27.50
2023-05-12T12:51:50.053Z,27.40
2023-05-12T12:54:20.060Z,27.40
2023-05-12T12:56:50.071Z,27.50
2023-05-12T12:59:19.753Z,27.50
2023-05-12T13:01:50.094Z,27.50
2023-05-12T13:04:23.912Z,27.50
2023-05-12T13:06:54.288Z,27.50
2023-05-12T13:09:24.426Z,27.50
2023-05-12T13:11:54.468Z,27.40
2023-05-12T13:14:24.532Z,27.50
2023-05-12T13:16:54.468Z,27.50
2023-05-12T13:19:24.305Z,27.50
2023-05-12T13:21:54.182Z,27.50
2023-05-12T13:24:23.948Z,27.40
2023-05-12T13:26:53.863Z,27.40
2023-05-12T13:29:23.603Z,27.50
2023-05-12T13:31:53.705Z,27.50
2023-05-12T13:34:23.475Z,27.30
2023-05-12T13:36:53.417Z,27.30
2023-05-12T13:39:23.074Z,27.30
2023-05-12T13:41:53.033Z,27.40
2023-05-12T13:44:22.792Z,27.40
2023-05-12T13:46:53.037Z,27.40
2023-05-12T13:49:22.829Z,27.50
2023-05-12T13:51:52.875Z,27.30
2023-05-12T13:54:22.671Z,27.20
2023-05-12T13:56:52.907Z,27.20
2023-05-12T13:59:22.637Z,27.30
2023-05-12T14:01:52.599Z,27.30
2023-05-12T14:04:22.356Z,27.40
2023-05-12T14:06:52.694Z,27.20
2023-05-12T14:09:23.545Z,27.30
2023-05-12T14:11:54.155Z,27.30
2023-05-12T14:14:26.094Z,27.20
2023-05-12T14:16:56.473Z,27.30
2023-05-12T14:19:26.392Z,27.30
2023-05-12T14:21:56.414Z,27.40
2023-05-12T14:24:26.130Z,27.30
2023-05-12T14:26:56.318Z,27.30
2023-05-12T14:29:26.105Z,27.40
2023-05-12T14:31:56.225Z,27.40
2023-05-12T14:34:26.405Z,27.40
2023-05-12T14:36:56.384Z,27.30
2023-05-12T14:39:26.096Z,27.40
2023-05-12T14:41:56.026Z,27.30
2023-05-12T14:44:25.814Z,27.30
2023-05-12T14:46:55.987Z,27.40
2023-05-12T14:49:26.113Z,27.30
2023-05-12T14:51:56.843Z,27.20
2023-05-12T14:54:26.606Z,27.20
2023-05-12T14:56:56.836Z,27.20
2023-05-12T14:59:26.556Z,27.30
2023-05-12T15:01:56.514Z,27.30
2023-05-12T15:04:26.688Z,27.40
2023-05-12T15:06:56.578Z,27.40
2023-05-12T15:09:26.359Z,27.30
2023-05-12T15:11:56.602Z,27.40
2023-05-12T15:14:27.307Z,27.40
2023-05-12T15:16:57.674Z,27.30
2023-05-12T15:19:27.507Z,27.30
2023-05-12T15:21:57.414Z,27.20
2023-05-12T15:24:27.184Z,27.30
2023-05-12T15:26:57.256Z,27.30
2023-05-12T15:29:27.248Z,27.20
2023-05-12T15:31:57.726Z,27.20
2023-05-12T15:34:29.122Z,27.20
2023-05-12T15:37:00.154Z,27.20
2023-05-12T15:39:30.185Z,27.20
2023-05-12T15:42:00.466Z,27.20
2023-05-12T15:44:30.373Z,27.20
2023-05-12T15:47:00.488Z,27.20
2023-05-12T15:49:30.530Z,27.10
2023-05-12T15:52:00.198Z,27.10
2023-05-12T15:54:32.355Z,27.10
2023-05-12T15:57:04.144Z,27.10
2023-05-12T15:59:34.523Z,27.10
2023-05-12T16:02:05.203Z,27.10
2023-05-12T16:04:35.322Z,27.10
2023-05-12T16:07:05.155Z,27.10
2023-05-12T16:09:35.000Z,27.10
2023-05-12T16:12:05.932Z,27.10
2023-05-12T16:14:37.559Z,27.10
2023-05-12T16:17:07.509Z,27.10
2023-05-12T16:19:37.451Z,27.10
2023-05-12T16:22:07.353Z,27.10
2023-05-12T16:24:37.468Z,27.00
2023-05-12T16:27:07.667Z,27.10
2023-05-12T16:29:37.549Z,27.10
2023-05-12T16:32:07.766Z,27.10
2023-05-12T16:34:38.304Z,27.10
2023-05-12T16:37:08.038Z,27.10
2023-05-12T16:39:38.166Z,27.00
2023-05-12T16:42:08.086Z,27.00
2023-05-12T16:44:37.954Z,27.00
2023-05-12T16:47:07.933Z,27.00
2023-05-12T16:49:37.697Z,27.00
2023-05-12T16:52:09.110Z,27.00
2023-05-12T16:54:39.944Z,27.00
2023-05-12T16:57:09.599Z,27.00
2023-05-12T16:59:41.069Z,27.00
2023-05-12T17:02:12.131Z,27.00
2023-05-12T17:04:42.077Z,27.00
2023-05-12T17:07:12.266Z,26.90
2023-05-12T17:09:42.586Z,26.80
2023-05-12T17:12:12.392Z,26.80
2023-05-12T17:14:44.310Z,26.80
2023-05-12T17:17:16.938Z,26.80
2023-05-12T17:19:46.817Z,26.80
2023-05-12T17:22:16.531Z,26.90
2023-05-12T17:24:46.475Z,26.90
2023-05-12T17:27:16.072Z,26.80
2023-05-12T17:29:45.918Z,26.80
2023-05-12T17:32:15.580Z,26.80
2023-05-12T17:34:46.347Z,26.80
2023-05-12T17:37:16.327Z,26.80
2023-05-12T17:39:46.138Z,26.80
2023-05-12T17:42:16.367Z,26.80
2023-05-12T17:44:46.857Z,26.70
2023-05-12T17:47:17.189Z,26.70
2023-05-12T17:49:47.710Z,26.70
2023-05-12T17:52:17.701Z,26.60
2023-05-12T17:54:47.411Z,26.60
2023-05-12T17:57:17.855Z,26.60
2023-05-12T17:59:47.821Z,26.60
2023-05-12T18:02:17.841Z,26.60
2023-05-12T18:04:48.298Z,26.60
2023-05-12T18:07:18.921Z,26.60
2023-05-12T18:09:48.648Z,26.60
2023-05-12T18:12:19.995Z,26.60
2023-05-12T18:14:50.173Z,26.60
2023-05-12T18:17:21.198Z,26.60
2023-05-12T18:19:51.551Z,26.60
2023-05-12T18:22:21.312Z,26.60
2023-05-12T18:24:52.396Z,26.60
2023-05-12T18:27:22.553Z,26.60
2023-05-12T18:29:52.394Z,26.60
2023-05-12T18:32:23.288Z,26.50
2023-05-12T18:34:55.216Z,26.60
2023-05-12T18:37:25.241Z,26.50
2023-05-12T18:39:59.762Z,26.50
2023-05-12T18:42:30.575Z,26.40
2023-05-12T18:45:00.230Z,26.50
2023-05-12T18:47:30.156Z,26.50
2023-05-12T18:49:59.821Z,26.50
2023-05-12T18:52:29.980Z,26.50
2023-05-12T18:54:59.721Z,26.60
2023-05-12T18:57:29.657Z,26.60
2023-05-12T18:59:59.357Z,26.60
2023-05-12T19:02:29.409Z,26.60
2023-05-12T19:04:59.172Z,26.60
2023-05-12T19:07:29.123Z,26.60
2023-05-12T19:09:58.866Z,26.60
2023-05-12T19:12:28.934Z,26.60
2023-05-12T19:14:58.568Z,26.60
2023-05-12T19:17:28.436Z,26.60
2023-05-12T19:19:59.099Z,26.60
2023-05-12T19:22:29.731Z,26.60
2023-05-12T19:24:59.870Z,26.60
2023-05-12T19:27:30.253Z,26.60
2023-05-12T19:29:59.897Z,26.60
2023-05-12T19:32:30.578Z,26.60
2023-05-12T19:35:02.364Z,26.60
2023-05-12T19:37:32.644Z,26.60
2023-05-12T19:40:02.566Z,26.60
2023-05-12T19:42:32.920Z,26.60
2023-05-12T19:45:02.772Z,26.60
2023-05-12T19:47:34.044Z,26.60
2023-05-12T19:50:04.054Z,26.60
2023-05-12T19:52:33.832Z,26.60
2023-05-12T19:55:03.716Z,26.60
2023-05-12T19:57:33.697Z,26.50
2023-05-12T20:00:04.009Z,26.50
2023-05-12T20:02:42.413Z,26.50
2023-05-12T20:05:12.400Z,26.50
2023-05-12T20:07:42.250Z,26.50
2023-05-12T20:10:12.575Z,26.50
2023-05-12T20:12:42.252Z,26.50
2023-05-12T20:15:12.914Z,26.40
2023-05-12T20:17:42.649Z,26.40
2023-05-12T20:20:13.346Z,26.40
2023-05-12T20:22:43.559Z,26.50
2023-05-12T20:25:17.432Z,26.50
2023-05-12T20:27:47.736Z,26.40
2023-05-12T20:30:17.575Z,26.40
2023-05-12T20:32:50.219Z,26.40
2023-05-12T20:35:22.053Z,26.40
2023-05-12T20:37:52.462Z,26.30
2023-05-12T20:40:22.206Z,26.40
2023-05-12T20:42:52.122Z,26.30
2023-05-12T20:45:22.231Z,26.30
2023-05-12T20:47:52.355Z,26.30
2023-05-12T20:50:22.349Z,26.30
2023-05-12T20:52:52.623Z,26.30
2023-05-12T20:55:22.882Z,26.30
2023-05-12T20:57:53.060Z,26.30
2023-05-12T21:00:23.104Z,26.30
2023-05-12T21:02:53.774Z,26.30
2023-05-12T21:05:23.910Z,26.20
2023-05-12T21:07:54.003Z,26.20
2023-05-12T21:10:24.069Z,26.10
2023-05-12T21:12:54.095Z,26.10
2023-05-12T21:15:25.994Z,26.10
2023-05-12T21:17:56.601Z,26.10
2023-05-12T21:20:26.834Z,26.10
2023-05-12T21:22:58.504Z,26.10
2023-05-12T21:25:28.757Z,26.10
2023-05-12T21:27:58.696Z,26.10
2023-05-12T21:30:28.602Z,26.20
2023-05-12T21:32:58.666Z,26.20
2023-05-12T21:35:29.310Z,26.20
2023-05-12T21:37:59.036Z,26.10
2023-05-12T21:40:29.062Z,26.20
2023-05-12T21:42:58.796Z,26.20
2023-05-12T21:45:29.080Z,26.20
2023-05-12T21:47:58.906Z,26.10
2023-05-12T21:50:29.197Z,26.20
2023-05-12T21:52:58.909Z,26.10
2023-05-12T21:55:28.925Z,26.20
2023-05-12T21:58:00.009Z,26.20
2023-05-12T22:00:30.560Z,26.10
2023-05-12T22:03:00.423Z,26.20
2023-05-12T22:05:30.403Z,26.20
2023-05-12T22:08:00.118Z,26.20
2023-05-12T22:10:32.129Z,26.20
2023-05-12T22:13:02.071Z,26.20
2023-05-12T22:15:31.851Z,26.20
2023-05-12T22:18:02.481Z,26.10
2023-05-12T22:20:32.544Z,26.10
2023-05-12T22:23:02.428Z,26.10
2023-05-12T22:25:32.139Z,26.00
2023-05-12T22:28:02.282Z,26.00
2023-05-12T22:30:32.651Z,26.00
2023-05-12T22:33:02.964Z,26.10
2023-05-12T22:35:33.814Z,26.00
2023-05-12T22:38:03.595Z,26.00
2023-05-12T22:40:34.365Z,26.00
2023-05-12T22:43:04.646Z,26.00
2023-05-12T22:45:34.288Z,26.00
2023-05-12T22:48:04.369Z,25.90
2023-05-12T22:50:34.019Z,25.90
2023-05-12T22:53:04.057Z,26.00
2023-05-12T22:55:34.094Z,25.90
2023-05-12T22:58:04.018Z,25.90
2023-05-12T23:00:34.160Z,25.90
2023-05-12T23:03:05.033Z,25.90
2023-05-12T23:05:34.964Z,25.90
2023-05-12T23:08:05.099Z,25.90
2023-05-12T23:10:35.516Z,25.90
2023-05-12T23:13:05.608Z,25.90
2023-05-12T23:15:35.410Z,25.90
2023-05-12T23:18:05.545Z,26.00
2023-05-12T23:20:36.493Z,26.00
2023-05-12T23:23:06.719Z,25.90
2023-05-12T23:25:38.609Z,26.00
2023-05-12T23:28:08.618Z,25.90
2023-05-12T23:30:38.364Z,25.90
2023-05-12T23:33:08.628Z,26.00
2023-05-12T23:35:39.380Z,26.00
2023-05-12T23:38:09.500Z,26.00
2023-05-12T23:40:40.703Z,26.00
2023-05-12T23:43:10.750Z,26.00
2023-05-12T23:45:40.442Z,26.10
2023-05-12T23:48:10.330Z,26.10
2023-05-12T23:50:40.050Z,26.10
2023-05-12T23:53:10.104Z,26.10
2023-05-12T23:55:40.306Z,26.10
2023-05-12T23:58:12.188Z,26.00
